sensor_id;sensor_type;location;lat;lon;timestamp;pressure;altitude;pressure_sealevel;temperature;humidity
84663;BME280;74891;59.208;18.220;2024-03-25T00:00:17;99853.38;;;-0.60;79.78
84663;BME280;74891;59.208;18.220;2024-03-25T00:02:43;99854.63;;;-0.56;79.58
84663;BME280;74891;59.208;18.220;2024-03-25T00:05:14;99862.31;;;-0.48;79.64
84663;BME280;74891;59.208;18.220;2024-03-25T00:07:58;99861.31;;;-0.61;79.01
84663;BME280;74891;59.208;18.220;2024-03-25T00:10:24;99860.81;;;-0.57;78.82
84663;BME280;74891;59.208;18.220;2024-03-25T00:12:52;99864.81;;;-0.54;78.94
84663;BME280;74891;59.208;18.220;2024-03-25T00:15:23;99811.75;;;-0.80;79.31
84663;BME280;74891;59.208;18.220;2024-03-25T00:17:49;99853.66;;;-0.55;78.92
84663;BME280;74891;59.208;18.220;2024-03-25T00:20:17;99854.63;;;-0.56;78.95
84663;BME280;74891;59.208;18.220;2024-03-25T00:22:48;99867.47;;;-0.62;79.37
84663;BME280;74891;59.208;18.220;2024-03-25T00:25:20;99806.44;;;-1.01;78.86
84663;BME280;74891;59.208;18.220;2024-03-25T00:27:46;99853.81;;;-0.71;79.21
84663;BME280;74891;59.208;18.220;2024-03-25T00:30:11;99868.00;;;-0.67;79.43
84663;BME280;74891;59.208;18.220;2024-03-25T00:32:37;99872.81;;;-0.64;79.45
84663;BME280;74891;59.208;18.220;2024-03-25T00:35:03;99866.13;;;-0.58;79.91
84663;BME280;74891;59.208;18.220;2024-03-25T00:37:36;99865.25;;;-0.51;78.78
84663;BME280;74891;59.208;18.220;2024-03-25T00:40:04;99867.13;;;-0.45;79.31
84663;BME280;74891;59.208;18.220;2024-03-25T00:42:32;99867.13;;;-0.45;79.57
84663;BME280;74891;59.208;18.220;2024-03-25T00:44:58;99867.13;;;-0.45;78.37
84663;BME280;74891;59.208;18.220;2024-03-25T00:47:30;99873.56;;;-0.40;78.47
84663;BME280;74891;59.208;18.220;2024-03-25T00:49:55;99874.25;;;-0.47;78.46
84663;BME280;74891;59.208;18.220;2024-03-25T00:52:20;99870.69;;;-0.46;79.01
84663;BME280;74891;59.208;18.220;2024-03-25T00:54:49;99838.41;;;-0.64;78.75
84663;BME280;74891;59.208;18.220;2024-03-25T00:57:17;99877.22;;;-0.35;78.52
84663;BME280;74891;59.208;18.220;2024-03-25T00:59:46;99843.88;;;-0.59;78.37
84663;BME280;74891;59.208;18.220;2024-03-25T01:02:11;99877.38;;;-0.51;78.69
84663;BME280;74891;59.208;18.220;2024-03-25T01:04:37;99878.25;;;-0.59;78.83
84663;BME280;74891;59.208;18.220;2024-03-25T01:07:05;99884.22;;;-0.58;78.50
84663;BME280;74891;59.208;18.220;2024-03-25T01:09:33;99884.22;;;-0.58;78.85
84663;BME280;74891;59.208;18.220;2024-03-25T01:11:59;99885.09;;;-0.66;78.13
84663;BME280;74891;59.208;18.220;2024-03-25T01:14:24;99879.56;;;-0.78;78.06
84663;BME280;74891;59.208;18.220;2024-03-25T01:16:52;99881.63;;;-0.73;78.89
84663;BME280;74891;59.208;18.220;2024-03-25T01:19:18;99895.09;;;-0.78;78.73
84663;BME280;74891;59.208;18.220;2024-03-25T01:21:43;99876.63;;;-0.75;78.43
84663;BME280;74891;59.208;18.220;2024-03-25T01:24:09;99882.16;;;-0.78;78.46
84663;BME280;74891;59.208;18.220;2024-03-25T01:26:35;99887.88;;;-0.68;78.95
84663;BME280;74891;59.208;18.220;2024-03-25T01:29:02;99843.50;;;-1.09;78.60
84663;BME280;74891;59.208;18.220;2024-03-25T01:31:31;99889.41;;;-0.73;78.32
84663;BME280;74891;59.208;18.220;2024-03-25T01:33:56;99885.19;;;-0.74;78.24
84663;BME280;74891;59.208;18.220;2024-03-25T01:36:21;99878.59;;;-0.77;78.41
84663;BME280;74891;59.208;18.220;2024-03-25T01:38:47;99893.72;;;-0.74;78.15
84663;BME280;74891;59.208;18.220;2024-03-25T01:41:19;99879.38;;;-0.76;78.09
84663;BME280;74891;59.208;18.220;2024-03-25T01:43:45;99880.00;;;-0.74;77.42
84663;BME280;74891;59.208;18.220;2024-03-25T01:46:13;99893.84;;;-0.67;78.09
84663;BME280;74891;59.208;18.220;2024-03-25T01:48:38;99894.28;;;-0.78;78.38
84663;BME280;74891;59.208;18.220;2024-03-25T01:51:04;99903.63;;;-0.77;77.20
84663;BME280;74891;59.208;18.220;2024-03-25T01:53:30;99901.56;;;-0.82;77.88
84663;BME280;74891;59.208;18.220;2024-03-25T01:55:59;99898.81;;;-0.80;77.89
84663;BME280;74891;59.208;18.220;2024-03-25T01:58:28;99899.44;;;-0.78;78.49
84663;BME280;74891;59.208;18.220;2024-03-25T02:00:56;99892.84;;;-0.81;78.44
84663;BME280;74891;59.208;18.220;2024-03-25T02:03:27;99897.53;;;-0.84;78.47
84663;BME280;74891;59.208;18.220;2024-03-25T02:05:59;99892.38;;;-0.84;78.58
84663;BME280;74891;59.208;18.220;2024-03-25T02:08:26;99892.50;;;-0.78;78.35
84663;BME280;74891;59.208;18.220;2024-03-25T02:10:54;99896.50;;;-0.75;78.24
84663;BME280;74891;59.208;18.220;2024-03-25T02:13:23;99897.53;;;-0.84;78.06
84663;BME280;74891;59.208;18.220;2024-03-25T02:15:49;99905.13;;;-0.83;78.01
84663;BME280;74891;59.208;18.220;2024-03-25T02:18:19;99894.78;;;-0.83;78.34
84663;BME280;74891;59.208;18.220;2024-03-25T02:20:48;99901.13;;;-0.85;77.91
84663;BME280;74891;59.208;18.220;2024-03-25T02:23:13;99897.91;;;-0.87;77.42
84663;BME280;74891;59.208;18.220;2024-03-25T02:25:42;99911.91;;;-0.82;78.13
84663;BME280;74891;59.208;18.220;2024-03-25T02:28:08;99909.25;;;-0.74;78.56
84663;BME280;74891;59.208;18.220;2024-03-25T02:30:33;99910.75;;;-0.79;78.32
84663;BME280;74891;59.208;18.220;2024-03-25T02:33:01;99915.97;;;-0.87;77.87
84663;BME280;74891;59.208;18.220;2024-03-25T02:35:27;99914.09;;;-0.94;77.87
84663;BME280;74891;59.208;18.220;2024-03-25T02:37:56;99911.22;;;-0.99;78.57
84663;BME280;74891;59.208;18.220;2024-03-25T02:40:22;99914.44;;;-0.97;78.73
84663;BME280;74891;59.208;18.220;2024-03-25T02:42:51;99908.59;;;-0.91;78.17
84663;BME280;74891;59.208;18.220;2024-03-25T02:45:19;99904.56;;;-0.93;77.75
84663;BME280;74891;59.208;18.220;2024-03-25T02:47:46;99910.53;;;-0.93;77.92
84663;BME280;74891;59.208;18.220;2024-03-25T02:50:14;99901.19;;;-0.94;78.23
84663;BME280;74891;59.208;18.220;2024-03-25T02:52:40;99917.25;;;-0.83;78.41
84663;BME280;74891;59.208;18.220;2024-03-25T02:55:05;99919.09;;;-0.92;77.79
84663;BME280;74891;59.208;18.220;2024-03-25T02:57:31;99882.59;;;-1.12;77.97
84663;BME280;74891;59.208;18.220;2024-03-25T02:59:59;99921.69;;;-0.92;77.50
84663;BME280;74891;59.208;18.220;2024-03-25T03:02:25;99916.34;;;-0.91;77.82
84663;BME280;74891;59.208;18.220;2024-03-25T03:04:50;99926.78;;;-0.84;77.56
84663;BME280;74891;59.208;18.220;2024-03-25T03:07:16;99925.19;;;-0.85;77.27
84663;BME280;74891;59.208;18.220;2024-03-25T03:09:42;99929.44;;;-0.92;77.25
84663;BME280;74891;59.208;18.220;2024-03-25T03:12:08;99928.00;;;-0.95;77.24
84663;BME280;74891;59.208;18.220;2024-03-25T03:14:34;99930.88;;;-0.90;78.48
84663;BME280;74891;59.208;18.220;2024-03-25T03:17:02;99924.38;;;-0.85;78.00
84663;BME280;74891;59.208;18.220;2024-03-25T03:19:31;99935.09;;;-0.74;77.42
84663;BME280;74891;59.208;18.220;2024-03-25T03:21:57;99928.31;;;-0.75;77.56
84663;BME280;74891;59.208;18.220;2024-03-25T03:24:22;99932.69;;;-0.75;77.14
84663;BME280;74891;59.208;18.220;2024-03-25T03:26:51;99931.91;;;-0.76;76.88
84663;BME280;74891;59.208;18.220;2024-03-25T03:29:19;99934.94;;;-0.72;76.93
84663;BME280;74891;59.208;18.220;2024-03-25T03:31:47;99939.31;;;-0.73;77.26
84663;BME280;74891;59.208;18.220;2024-03-25T03:34:13;99948.50;;;-0.70;77.17
84663;BME280;74891;59.208;18.220;2024-03-25T03:36:41;99950.78;;;-0.75;76.45
84663;BME280;74891;59.208;18.220;2024-03-25T03:39:07;99952.09;;;-0.79;76.35
84663;BME280;74891;59.208;18.220;2024-03-25T03:41:34;99947.63;;;-0.85;76.29
84663;BME280;74891;59.208;18.220;2024-03-25T03:44:00;99946.31;;;-0.81;76.60
84663;BME280;74891;59.208;18.220;2024-03-25T03:46:29;99950.00;;;-0.76;76.58
84663;BME280;74891;59.208;18.220;2024-03-25T03:48:54;99958.41;;;-0.82;76.48
84663;BME280;74891;59.208;18.220;2024-03-25T03:51:25;99950.38;;;-0.87;76.19
84663;BME280;74891;59.208;18.220;2024-03-25T03:53:50;99957.22;;;-0.94;75.82
84663;BME280;74891;59.208;18.220;2024-03-25T03:56:16;99963.34;;;-0.95;75.71
84663;BME280;74891;59.208;18.220;2024-03-25T03:58:41;99963.03;;;-0.92;75.83
84663;BME280;74891;59.208;18.220;2024-03-25T04:01:19;99959.81;;;-0.94;76.35
84663;BME280;74891;59.208;18.220;2024-03-25T04:03:44;99955.78;;;-0.97;75.31
84663;BME280;74891;59.208;18.220;2024-03-25T04:06:15;99951.06;;;-0.93;75.95
84663;BME280;74891;59.208;18.220;2024-03-25T04:08:41;99947.84;;;-0.95;75.51
84663;BME280;74891;59.208;18.220;2024-03-25T04:11:10;99965.44;;;-0.91;75.19
84663;BME280;74891;59.208;18.220;2024-03-25T04:13:35;99919.91;;;-1.15;75.45
84663;BME280;74891;59.208;18.220;2024-03-25T04:16:05;99961.91;;;-0.90;74.68
84663;BME280;74891;59.208;18.220;2024-03-25T04:18:32;99968.66;;;-0.88;75.38
84663;BME280;74891;59.208;18.220;2024-03-25T04:20:58;99971.09;;;-0.95;75.94
84663;BME280;74891;59.208;18.220;2024-03-25T04:23:26;99973.69;;;-0.95;75.69
84663;BME280;74891;59.208;18.220;2024-03-25T04:25:55;99978.69;;;-0.94;76.01
84663;BME280;74891;59.208;18.220;2024-03-25T04:28:20;99978.81;;;-0.87;75.83
84663;BME280;74891;59.208;18.220;2024-03-25T04:30:52;99981.06;;;-0.84;75.53
84663;BME280;74891;59.208;18.220;2024-03-25T04:33:18;99987.03;;;-0.83;74.98
84663;BME280;74891;59.208;18.220;2024-03-25T04:35:44;99982.81;;;-0.84;74.97
84663;BME280;74891;59.208;18.220;2024-03-25T04:38:10;99988.63;;;-0.82;75.74
84663;BME280;74891;59.208;18.220;2024-03-25T04:40:39;99977.66;;;-0.84;75.62
84663;BME280;74891;59.208;18.220;2024-03-25T04:43:04;99983.13;;;-0.79;76.08
84663;BME280;74891;59.208;18.220;2024-03-25T04:45:32;99993.09;;;-0.76;75.73
84663;BME280;74891;59.208;18.220;2024-03-25T04:47:57;99998.63;;;-0.79;75.18
84663;BME280;74891;59.208;18.220;2024-03-25T04:50:23;99997.19;;;-0.82;75.30
84663;BME280;74891;59.208;18.220;2024-03-25T04:52:48;99994.44;;;-0.80;75.12
84663;BME280;74891;59.208;18.220;2024-03-25T04:55:14;99999.97;;;-0.83;75.16
84663;BME280;74891;59.208;18.220;2024-03-25T04:57:40;99908.78;;;-1.38;75.58
84663;BME280;74891;59.208;18.220;2024-03-25T05:00:06;99957.78;;;-1.07;75.10
84663;BME280;74891;59.208;18.220;2024-03-25T05:02:32;99997.38;;;-0.83;75.15
84663;BME280;74891;59.208;18.220;2024-03-25T05:04:57;99984.66;;;-0.93;75.19
84663;BME280;74891;59.208;18.220;2024-03-25T05:07:23;99997.81;;;-0.80;75.20
84663;BME280;74891;59.208;18.220;2024-03-25T05:09:48;99969.34;;;-0.95;75.75
84663;BME280;74891;59.208;18.220;2024-03-25T05:12:19;99994.91;;;-0.77;75.12
84663;BME280;74891;59.208;18.220;2024-03-25T05:14:44;99992.56;;;-0.86;75.15
84663;BME280;74891;59.208;18.220;2024-03-25T05:17:10;100000.91;;;-0.84;74.92
84663;BME280;74891;59.208;18.220;2024-03-25T05:19:38;100006.91;;;-0.84;75.18
84663;BME280;74891;59.208;18.220;2024-03-25T05:22:07;100004.16;;;-0.82;75.34
84663;BME280;74891;59.208;18.220;2024-03-25T05:24:32;100011.56;;;-0.79;75.52
84663;BME280;74891;59.208;18.220;2024-03-25T05:27:00;100002.06;;;-0.87;75.30
84663;BME280;74891;59.208;18.220;2024-03-25T05:29:26;100006.66;;;-0.74;75.14
84663;BME280;74891;59.208;18.220;2024-03-25T05:31:59;99989.78;;;-0.85;74.85
84663;BME280;74891;59.208;18.220;2024-03-25T05:34:26;100001.06;;;-0.78;75.37
84663;BME280;74891;59.208;18.220;2024-03-25T05:36:52;100013.47;;;-0.73;75.20
84663;BME280;74891;59.208;18.220;2024-03-25T05:39:18;100013.13;;;-0.70;75.27
84663;BME280;74891;59.208;18.220;2024-03-25T05:41:44;100013.91;;;-0.70;75.12
84663;BME280;74891;59.208;18.220;2024-03-25T05:44:10;100010.25;;;-0.75;74.81
84663;BME280;74891;59.208;18.220;2024-03-25T05:46:39;100008.28;;;-0.73;74.58
84663;BME280;74891;59.208;18.220;2024-03-25T05:49:04;100010.00;;;-0.65;74.64
84663;BME280;74891;59.208;18.220;2024-03-25T05:51:30;100014.66;;;-0.61;74.88
84663;BME280;74891;59.208;18.220;2024-03-25T05:54:03;100016.00;;;-0.65;73.79
84663;BME280;74891;59.208;18.220;2024-03-25T05:56:28;100015.16;;;-0.65;74.99
84663;BME280;74891;59.208;18.220;2024-03-25T05:58:59;100022.41;;;-0.61;75.04
84663;BME280;74891;59.208;18.220;2024-03-25T06:01:25;99984.81;;;-0.86;74.29
84663;BME280;74891;59.208;18.220;2024-03-25T06:03:53;100020.53;;;-0.67;74.21
84663;BME280;74891;59.208;18.220;2024-03-25T06:06:19;100016.09;;;-0.58;74.51
84663;BME280;74891;59.208;18.220;2024-03-25T06:08:48;100016.31;;;-0.68;74.88
84663;BME280;74891;59.208;18.220;2024-03-25T06:11:16;100015.16;;;-0.65;74.46
84663;BME280;74891;59.208;18.220;2024-03-25T06:13:47;100028.50;;;-0.54;74.50
84663;BME280;74891;59.208;18.220;2024-03-25T06:16:13;100029.13;;;-0.52;74.31
84663;BME280;74891;59.208;18.220;2024-03-25T06:18:39;99983.34;;;-0.66;74.42
84663;BME280;74891;59.208;18.220;2024-03-25T06:21:05;100033.38;;;-0.36;73.91
84663;BME280;74891;59.208;18.220;2024-03-25T06:23:31;100033.44;;;-0.44;73.75
84663;BME280;74891;59.208;18.220;2024-03-25T06:25:56;100032.00;;;-0.47;73.62
84663;BME280;74891;59.208;18.220;2024-03-25T06:28:22;100030.16;;;-0.38;73.71
84663;BME280;74891;59.208;18.220;2024-03-25T06:30:53;100044.25;;;-0.40;74.39
84663;BME280;74891;59.208;18.220;2024-03-25T06:33:41;100029.06;;;-0.43;73.87
84663;BME280;74891;59.208;18.220;2024-03-25T06:36:25;100042.91;;;-0.36;73.34
84663;BME280;74891;59.208;18.220;2024-03-25T06:38:50;100049.88;;;-0.37;73.66
84663;BME280;74891;59.208;18.220;2024-03-25T06:41:16;100047.66;;;-0.25;73.70
84663;BME280;74891;59.208;18.220;2024-03-25T06:43:45;99968.19;;;-0.69;73.28
84663;BME280;74891;59.208;18.220;2024-03-25T06:46:11;100048.22;;;-0.15;73.44
84663;BME280;74891;59.208;18.220;2024-03-25T06:48:38;100046.56;;;-0.08;72.83
84663;BME280;74891;59.208;18.220;2024-03-25T06:51:04;100057.38;;;0.11;73.02
84663;BME280;74891;59.208;18.220;2024-03-25T06:53:29;100061.75;;;0.10;73.36
84663;BME280;74891;59.208;18.220;2024-03-25T06:55:59;100057.53;;;-0.06;72.98
84663;BME280;74891;59.208;18.220;2024-03-25T06:58:25;100068.34;;;-0.02;72.90
84663;BME280;74891;59.208;18.220;2024-03-25T07:00:52;100064.16;;;0.12;72.44
84663;BME280;74891;59.208;18.220;2024-03-25T07:03:22;100062.66;;;0.17;72.03
84663;BME280;74891;59.208;18.220;2024-03-25T07:05:48;100076.47;;;0.10;70.71
84663;BME280;74891;59.208;18.220;2024-03-25T07:08:15;100070.16;;;0.12;71.17
84663;BME280;74891;59.208;18.220;2024-03-25T07:10:44;100072.22;;;0.17;71.93
84663;BME280;74891;59.208;18.220;2024-03-25T07:13:09;100071.22;;;0.18;71.47
84663;BME280;74891;59.208;18.220;2024-03-25T07:15:35;100081.13;;;0.29;71.30
84663;BME280;74891;59.208;18.220;2024-03-25T07:18:01;100075.28;;;0.35;71.32
84663;BME280;74891;59.208;18.220;2024-03-25T07:20:26;100081.34;;;0.42;71.01
84663;BME280;74891;59.208;18.220;2024-03-25T07:23:00;100087.16;;;0.44;71.09
84663;BME280;74891;59.208;18.220;2024-03-25T07:25:31;100089.81;;;0.51;70.50
84663;BME280;74891;59.208;18.220;2024-03-25T07:27:57;100074.38;;;0.58;70.85
84663;BME280;74891;59.208;18.220;2024-03-25T07:30:23;100085.28;;;0.68;70.54
84663;BME280;74891;59.208;18.220;2024-03-25T07:32:57;100090.97;;;0.78;70.07
84663;BME280;74891;59.208;18.220;2024-03-25T07:35:22;100103.03;;;0.86;70.27
84663;BME280;74891;59.208;18.220;2024-03-25T07:37:51;100094.53;;;1.07;69.82
84663;BME280;74891;59.208;18.220;2024-03-25T07:40:21;100107.38;;;1.15;69.87
84663;BME280;74891;59.208;18.220;2024-03-25T07:42:50;100106.59;;;1.15;68.51
84663;BME280;74891;59.208;18.220;2024-03-25T07:45:18;100077.56;;;0.89;68.91
84663;BME280;74891;59.208;18.220;2024-03-25T07:47:43;100109.88;;;1.08;69.96
84663;BME280;74891;59.208;18.220;2024-03-25T07:50:09;100111.25;;;1.04;69.21
84663;BME280;74891;59.208;18.220;2024-03-25T07:52:35;100105.09;;;0.91;68.93
84663;BME280;74891;59.208;18.220;2024-03-25T07:55:08;100116.63;;;0.88;69.18
84663;BME280;74891;59.208;18.220;2024-03-25T07:57:34;100116.00;;;1.01;68.82
84663;BME280;74891;59.208;18.220;2024-03-25T07:59:59;100128.28;;;1.14;69.20
84663;BME280;74891;59.208;18.220;2024-03-25T08:02:25;100128.06;;;1.30;69.27
84663;BME280;74891;59.208;18.220;2024-03-25T08:04:56;100125.94;;;1.33;68.50
84663;BME280;74891;59.208;18.220;2024-03-25T08:07:21;100122.34;;;1.35;68.39
84663;BME280;74891;59.208;18.220;2024-03-25T08:09:50;100116.06;;;1.44;68.13
84663;BME280;74891;59.208;18.220;2024-03-25T08:12:15;100117.31;;;1.48;68.63
84663;BME280;74891;59.208;18.220;2024-03-25T08:14:41;100130.09;;;1.49;67.78
84663;BME280;74891;59.208;18.220;2024-03-25T08:17:08;100132.47;;;1.29;66.62
84663;BME280;74891;59.208;18.220;2024-03-25T08:19:34;100120.44;;;1.43;67.23
84663;BME280;74891;59.208;18.220;2024-03-25T08:21:59;100131.25;;;1.10;67.22
84663;BME280;74891;59.208;18.220;2024-03-25T08:24:30;100127.69;;;1.12;68.20
84663;BME280;74891;59.208;18.220;2024-03-25T08:26:58;100124.78;;;1.21;67.39
84663;BME280;74891;59.208;18.220;2024-03-25T08:29:26;100136.91;;;1.36;66.23
84663;BME280;74891;59.208;18.220;2024-03-25T08:31:54;100130.03;;;1.43;67.83
84663;BME280;74891;59.208;18.220;2024-03-25T08:34:20;100133.88;;;1.47;66.76
84663;BME280;74891;59.208;18.220;2024-03-25T08:36:51;100139.00;;;1.62;66.77
84663;BME280;74891;59.208;18.220;2024-03-25T08:39:16;100139.69;;;1.70;66.28
84663;BME280;74891;59.208;18.220;2024-03-25T08:41:42;100140.44;;;1.86;65.87
84663;BME280;74891;59.208;18.220;2024-03-25T08:44:15;100140.94;;;1.96;65.15
84663;BME280;74891;59.208;18.220;2024-03-25T08:46:43;100144.38;;;1.82;65.06
84663;BME280;74891;59.208;18.220;2024-03-25T08:49:15;100141.25;;;1.86;65.44
84663;BME280;74891;59.208;18.220;2024-03-25T08:51:45;100140.97;;;2.03;65.78
84663;BME280;74891;59.208;18.220;2024-03-25T08:54:18;100098.72;;;1.66;64.09
84663;BME280;74891;59.208;18.220;2024-03-25T08:56:46;100130.72;;;1.94;65.98
84663;BME280;74891;59.208;18.220;2024-03-25T08:59:14;100137.84;;;2.07;65.51
84663;BME280;74891;59.208;18.220;2024-03-25T09:01:43;100108.78;;;1.97;64.91
84663;BME280;74891;59.208;18.220;2024-03-25T09:04:08;100144.38;;;2.03;65.74
84663;BME280;74891;59.208;18.220;2024-03-25T09:06:36;100104.53;;;1.68;65.85
84663;BME280;74891;59.208;18.220;2024-03-25T09:09:03;100146.38;;;1.80;64.80
84663;BME280;74891;59.208;18.220;2024-03-25T09:11:47;100108.28;;;1.65;65.38
84663;BME280;74891;59.208;18.220;2024-03-25T09:14:16;100149.09;;;1.93;65.03
84663;BME280;74891;59.208;18.220;2024-03-25T09:16:44;100146.84;;;1.90;64.92
84663;BME280;74891;59.208;18.220;2024-03-25T09:19:20;100142.22;;;2.07;64.12
84663;BME280;74891;59.208;18.220;2024-03-25T09:21:48;100154.50;;;1.98;64.55
84663;BME280;74891;59.208;18.220;2024-03-25T09:24:17;100151.06;;;2.12;65.57
84663;BME280;74891;59.208;18.220;2024-03-25T09:26:44;100140.97;;;1.81;64.37
84663;BME280;74891;59.208;18.220;2024-03-25T09:29:11;100160.72;;;1.97;64.82
84663;BME280;74891;59.208;18.220;2024-03-25T09:31:39;100143.03;;;2.07;65.77
84663;BME280;74891;59.208;18.220;2024-03-25T09:34:05;100153.19;;;2.30;64.84
84663;BME280;74891;59.208;18.220;2024-03-25T09:36:30;100150.13;;;2.48;63.83
84663;BME280;74891;59.208;18.220;2024-03-25T09:39:04;100150.88;;;2.42;64.00
84663;BME280;74891;59.208;18.220;2024-03-25T09:41:30;100162.28;;;2.19;64.52
84663;BME280;74891;59.208;18.220;2024-03-25T09:44:00;100157.53;;;2.23;65.03
84663;BME280;74891;59.208;18.220;2024-03-25T09:46:29;100159.94;;;2.03;65.72
84663;BME280;74891;59.208;18.220;2024-03-25T09:48:55;100165.78;;;2.05;64.71
84663;BME280;74891;59.208;18.220;2024-03-25T09:51:23;100170.31;;;2.25;65.00
84663;BME280;74891;59.208;18.220;2024-03-25T09:53:49;100167.22;;;2.36;64.51
84663;BME280;74891;59.208;18.220;2024-03-25T09:56:16;100179.38;;;2.57;64.17
84663;BME280;74891;59.208;18.220;2024-03-25T09:58:47;100170.25;;;2.67;63.83
84663;BME280;74891;59.208;18.220;2024-03-25T10:01:16;100167.88;;;2.73;63.47
84663;BME280;74891;59.208;18.220;2024-03-25T10:03:43;100131.97;;;2.55;63.14
84663;BME280;74891;59.208;18.220;2024-03-25T10:06:16;100168.03;;;2.99;63.26
84663;BME280;74891;59.208;18.220;2024-03-25T10:08:41;100166.06;;;3.01;63.01
84663;BME280;74891;59.208;18.220;2024-03-25T10:11:07;100169.69;;;3.14;62.34
84663;BME280;74891;59.208;18.220;2024-03-25T10:13:32;100115.91;;;2.79;62.67
84663;BME280;74891;59.208;18.220;2024-03-25T10:15:58;100168.44;;;2.96;62.42
84663;BME280;74891;59.208;18.220;2024-03-25T10:18:23;100133.28;;;2.72;62.23
84663;BME280;74891;59.208;18.220;2024-03-25T10:20:52;100168.19;;;2.91;61.80
84663;BME280;74891;59.208;18.220;2024-03-25T10:23:25;100175.75;;;2.86;61.05
84663;BME280;74891;59.208;18.220;2024-03-25T10:25:54;100180.84;;;3.01;62.31
84663;BME280;74891;59.208;18.220;2024-03-25T10:28:19;100170.69;;;3.13;62.31
84663;BME280;74891;59.208;18.220;2024-03-25T10:30:45;100179.38;;;3.26;61.61
84663;BME280;74891;59.208;18.220;2024-03-25T10:33:11;100173.38;;;3.32;60.81
84663;BME280;74891;59.208;18.220;2024-03-25T10:35:38;100130.28;;;3.17;61.03
84663;BME280;74891;59.208;18.220;2024-03-25T10:38:07;100167.59;;;3.44;60.62
84663;BME280;74891;59.208;18.220;2024-03-25T10:40:34;100176.38;;;3.36;59.67
84663;BME280;74891;59.208;18.220;2024-03-25T10:43:03;100181.81;;;3.41;60.59
84663;BME280;74891;59.208;18.220;2024-03-25T10:45:35;100177.63;;;3.40;59.81
84663;BME280;74891;59.208;18.220;2024-03-25T10:48:09;100181.25;;;3.46;60.31
84663;BME280;74891;59.208;18.220;2024-03-25T10:50:40;100150.81;;;3.46;59.88
84663;BME280;74891;59.208;18.220;2024-03-25T10:53:18;100174.72;;;3.70;59.61
84663;BME280;74891;59.208;18.220;2024-03-25T10:55:58;100176.31;;;3.84;59.13
84663;BME280;74891;59.208;18.220;2024-03-25T10:58:30;100185.38;;;3.88;59.64
84663;BME280;74891;59.208;18.220;2024-03-25T11:01:00;100187.16;;;3.88;58.97
84663;BME280;74891;59.208;18.220;2024-03-25T11:03:26;100183.53;;;3.82;58.38
84663;BME280;74891;59.208;18.220;2024-03-25T11:05:52;100186.13;;;3.82;58.52
84663;BME280;74891;59.208;18.220;2024-03-25T11:08:30;100143.44;;;3.57;58.42
84663;BME280;74891;59.208;18.220;2024-03-25T11:10:56;100151.19;;;3.43;57.58
84663;BME280;74891;59.208;18.220;2024-03-25T11:13:27;100187.47;;;3.58;59.54
84663;BME280;74891;59.208;18.220;2024-03-25T11:15:53;100189.16;;;3.92;58.93
84663;BME280;74891;59.208;18.220;2024-03-25T11:18:27;100180.56;;;4.12;58.16
84663;BME280;74891;59.208;18.220;2024-03-25T11:21:05;100184.41;;;4.16;57.85
84663;BME280;74891;59.208;18.220;2024-03-25T11:23:44;100192.53;;;3.73;55.65
84663;BME280;74891;59.208;18.220;2024-03-25T11:26:19;100188.69;;;3.69;58.60
84663;BME280;74891;59.208;18.220;2024-03-25T11:28:45;100185.13;;;3.76;57.74
84663;BME280;74891;59.208;18.220;2024-03-25T11:31:11;100152.66;;;3.66;57.65
84663;BME280;74891;59.208;18.220;2024-03-25T11:33:44;100189.13;;;3.79;57.04
84663;BME280;74891;59.208;18.220;2024-03-25T11:36:10;100162.03;;;3.53;57.92
84663;BME280;74891;59.208;18.220;2024-03-25T11:38:39;100188.75;;;3.82;58.18
84663;BME280;74891;59.208;18.220;2024-03-25T11:41:10;100181.94;;;3.81;57.96
84663;BME280;74891;59.208;18.220;2024-03-25T11:43:36;100187.34;;;3.86;57.53
84663;BME280;74891;59.208;18.220;2024-03-25T11:46:08;100177.72;;;3.67;57.44
84663;BME280;74891;59.208;18.220;2024-03-25T11:48:36;100192.31;;;3.74;57.89
84663;BME280;74891;59.208;18.220;2024-03-25T11:51:03;100186.31;;;3.74;58.29
84663;BME280;74891;59.208;18.220;2024-03-25T11:53:31;100183.72;;;3.67;58.61
84663;BME280;74891;59.208;18.220;2024-03-25T11:55:59;100193.50;;;3.59;57.57
84663;BME280;74891;59.208;18.220;2024-03-25T11:58:28;100184.69;;;3.66;58.26
84663;BME280;74891;59.208;18.220;2024-03-25T12:00:53;100193.91;;;3.69;57.95
84663;BME280;74891;59.208;18.220;2024-03-25T12:03:19;100189.13;;;3.72;57.48
84663;BME280;74891;59.208;18.220;2024-03-25T12:05:48;100187.53;;;3.78;56.32
84663;BME280;74891;59.208;18.220;2024-03-25T12:08:13;100183.94;;;3.72;57.33
84663;BME280;74891;59.208;18.220;2024-03-25T12:10:39;100186.94;;;3.69;58.14
84663;BME280;74891;59.208;18.220;2024-03-25T12:13:26;100190.06;;;3.51;57.63
84663;BME280;74891;59.208;18.220;2024-03-25T12:15:53;100199.06;;;3.55;57.45
84663;BME280;74891;59.208;18.220;2024-03-25T12:18:21;100179.16;;;3.28;57.81
84663;BME280;74891;59.208;18.220;2024-03-25T12:20:49;100183.28;;;3.57;58.37
84663;BME280;74891;59.208;18.220;2024-03-25T12:23:15;100193.53;;;3.78;57.55
84663;BME280;74891;59.208;18.220;2024-03-25T12:25:41;100180.75;;;3.84;56.85
84663;BME280;74891;59.208;18.220;2024-03-25T12:28:12;100157.88;;;3.79;56.88
84663;BME280;74891;59.208;18.220;2024-03-25T12:30:48;100198.00;;;3.98;55.41
84663;BME280;74891;59.208;18.220;2024-03-25T12:33:14;100193.53;;;3.78;56.04
84663;BME280;74891;59.208;18.220;2024-03-25T12:35:47;100199.00;;;3.29;56.54
84663;BME280;74891;59.208;18.220;2024-03-25T12:40:50;100197.03;;;3.38;57.46
84663;BME280;74891;59.208;18.220;2024-03-25T12:43:16;100205.47;;;3.46;57.85
84663;BME280;74891;59.208;18.220;2024-03-25T12:45:48;100159.97;;;3.29;57.50
84663;BME280;74891;59.208;18.220;2024-03-25T12:48:16;100177.38;;;3.28;57.93
84663;BME280;74891;59.208;18.220;2024-03-25T12:50:41;100205.47;;;3.46;57.64
84663;BME280;74891;59.208;18.220;2024-03-25T12:53:17;100169.38;;;3.30;57.43